createdAt,value
2023-02-19T00:02:52.404Z,100425.88
2023-02-19T00:07:48.723Z,100431.19
2023-02-19T00:12:45.012Z,100449.22
2023-02-19T00:17:41.289Z,100448.69
2023-02-19T00:22:37.593Z,100445.31
2023-02-19T00:27:33.913Z,100451.53
2023-02-19T00:32:30.738Z,100450.69
2023-02-19T00:37:27.016Z,100457.63
2023-02-19T00:42:23.326Z,100458.34
2023-02-19T00:47:19.613Z,100457.16
2023-02-19T00:52:15.907Z,100468.53
2023-02-19T00:57:12.193Z,100477.22
2023-02-19T01:02:08.516Z,100481.59
2023-02-19T01:07:04.909Z,100485.94
2023-02-19T01:12:01.197Z,100480.28
2023-02-19T01:16:57.576Z,100484.44
2023-02-19T01:21:53.924Z,100500.59
2023-02-19T01:26:50.262Z,100507.41
2023-02-19T01:31:46.777Z,100520.78
2023-02-19T01:36:43.176Z,100507.41
2023-02-19T01:41:41.412Z,100527.66
2023-02-19T01:46:40.341Z,100533.81
2023-02-19T01:51:41.434Z,100519.91
2023-02-19T01:56:40.716Z,100499.31
2023-02-19T02:01:39.126Z,100491.13
2023-02-19T02:06:43.034Z,100472.53
2023-02-19T02:11:47.739Z,100457.69
2023-02-19T02:17:11.893Z,100460.22
2023-02-19T02:22:20.743Z,100442.63
2023-02-19T02:27:30.678Z,100437.31
2023-02-19T02:32:35.322Z,100416.31
2023-02-19T02:37:36.031Z,100400.38
2023-02-19T02:42:34.184Z,100383.78
2023-02-19T02:47:42.888Z,100377.66
2023-02-19T02:53:03.153Z,100378.84
2023-02-19T02:57:59.574Z,100377.00
2023-02-19T03:02:56.506Z,100366.53
2023-02-19T03:08:11.935Z,100356.00
2023-02-19T03:13:32.068Z,100343.06
2023-02-19T03:18:51.095Z,100336.72
2023-02-19T03:24:07.484Z,100342.03
2023-02-19T03:29:23.169Z,100343.91
2023-02-19T03:34:43.924Z,100342.25
2023-02-19T03:39:46.557Z,100346.56
2023-02-19T03:45:01.773Z,100349.47
2023-02-19T03:50:44.201Z,100347.56
2023-02-19T03:56:00.343Z,100351.16
2023-02-19T04:01:10.247Z,100353.28
2023-02-19T04:06:14.387Z,100357.13
2023-02-19T04:11:12.057Z,100358.03
2023-02-19T04:16:12.840Z,100345.63
2023-02-19T04:21:10.297Z,100364.31
2023-02-19T04:26:08.269Z,100350.94
2023-02-19T04:31:04.841Z,100358.03
2023-02-19T04:36:01.382Z,100355.59
2023-02-19T04:40:57.836Z,100349.44
2023-02-19T04:45:54.209Z,100352.72
2023-02-19T04:50:50.549Z,100366.13
2023-02-19T04:55:48.081Z,100369.94
2023-02-19T05:00:44.432Z,100364.75
2023-02-19T05:05:40.797Z,100367.41
2023-02-19T05:10:37.090Z,100369.41
2023-02-19T05:15:33.659Z,100374.81
2023-02-19T05:20:30.028Z,100373.34
2023-02-19T05:25:26.403Z,100375.06
2023-02-19T05:30:22.731Z,100376.97
2023-02-19T05:35:19.076Z,100376.44
2023-02-19T05:40:15.477Z,100401.69
2023-02-19T05:45:11.764Z,100419.09
2023-02-19T05:50:08.165Z,100427.56
2023-02-19T05:55:04.712Z,100440.06
2023-02-19T06:00:01.031Z,100456.19
2023-02-19T06:04:57.348Z,100474.25
2023-02-19T06:09:53.746Z,100492.25
2023-02-19T06:14:50.601Z,100513.66
2023-02-19T06:19:46.931Z,100515.53
2023-02-19T06:24:43.251Z,100526.16
2023-02-19T06:29:39.919Z,100534.31
2023-02-19T06:34:36.694Z,100530.91
2023-02-19T06:39:33.019Z,100537.91
2023-02-19T06:44:29.365Z,100548.63
2023-02-19T06:49:25.743Z,100553.44
2023-02-19T06:54:22.206Z,100575.72
2023-02-19T06:59:18.596Z,100590.47
2023-02-19T07:04:15.913Z,100607.22
2023-02-19T07:09:12.396Z,100606.25
2023-02-19T07:14:17.273Z,100620.16
2023-02-19T07:19:15.367Z,100630.72
2023-02-19T07:24:11.754Z,100638.97
2023-02-19T07:29:09.645Z,100659.81
2023-02-19T07:34:07.165Z,100664.72
2023-02-19T07:39:04.717Z,100668.28
2023-02-19T07:44:01.105Z,100681.41
2023-02-19T07:48:59.271Z,100694.34
2023-02-19T07:53:55.889Z,100695.19
2023-02-19T07:58:52.255Z,100707.81
2023-02-19T08:03:50.461Z,100709.06
2023-02-19T08:08:46.954Z,100719.81
2023-02-19T08:13:43.276Z,100719.69
2023-02-19T08:18:39.655Z,100736.44
2023-02-19T08:23:36.115Z,100731.09
2023-02-19T08:28:33.184Z,100729.31
2023-02-19T08:33:30.488Z,100743.50
2023-02-19T08:38:26.813Z,100748.25
2023-02-19T08:43:23.363Z,100740.94
2023-02-19T08:48:19.712Z,100752.16
2023-02-19T08:53:16.048Z,100757.28
2023-02-19T08:58:12.382Z,100766.16
2023-02-19T09:03:09.173Z,100771.91
2023-02-19T09:08:05.553Z,100780.63
2023-02-19T09:13:02.608Z,100791.81
2023-02-19T09:17:59.861Z,100802.66
2023-02-19T09:22:57.446Z,100822.84
2023-02-19T09:27:57.261Z,100827.06
2023-02-19T09:32:53.948Z,100819.44
2023-02-19T09:37:50.266Z,100833.00
2023-02-19T09:42:47.817Z,100839.00
2023-02-19T09:47:44.346Z,100851.06
2023-02-19T09:52:51.291Z,100867.09
2023-02-19T09:57:48.539Z,100878.44
2023-02-19T10:02:44.935Z,100891.78
2023-02-19T10:07:47.080Z,100900.63
2023-02-19T10:12:47.919Z,100907.53
2023-02-19T10:17:44.378Z,100924.09
2023-02-19T10:22:40.759Z,100926.75
2023-02-19T10:27:37.089Z,100938.25
2023-02-19T10:32:33.572Z,100934.50
2023-02-19T10:37:30.133Z,100957.91
2023-02-19T10:42:26.646Z,100973.50
2023-02-19T10:47:26.329Z,100981.50
2023-02-19T10:52:32.652Z,100962.28
2023-02-19T10:57:31.243Z,100961.72
2023-02-19T11:02:29.003Z,100972.91
2023-02-19T11:07:25.359Z,100974.66
2023-02-19T11:12:28.214Z,100972.50
2023-02-19T11:17:27.594Z,100980.25
2023-02-19T11:22:40.684Z,100983.84
2023-02-19T11:27:54.085Z,100995.41
2023-02-19T11:32:50.386Z,100991.72
2023-02-19T11:37:54.199Z,100996.94
2023-02-19T11:43:05.673Z,100984.75
2023-02-19T11:48:07.533Z,100991.13
2023-02-19T11:53:27.818Z,100982.72
2023-02-19T11:59:01.741Z,100974.06
2023-02-19T12:04:16.716Z,100975.88
2023-02-19T12:09:37.289Z,100970.50
2023-02-19T12:14:45.252Z,100975.78
2023-02-19T12:19:58.739Z,100980.69
2023-02-19T12:25:19.373Z,100986.47
2023-02-19T12:30:54.572Z,100991.66
2023-02-19T12:36:16.315Z,101004.88
2023-02-19T12:41:25.942Z,101002.31
2023-02-19T12:46:32.117Z,101004.63
2023-02-19T12:51:45.100Z,101011.72
2023-02-19T12:56:48.820Z,101020.19
2023-02-19T13:02:00.127Z,101027.78
2023-02-19T13:07:02.421Z,101030.88
2023-02-19T13:12:04.361Z,101034.31
2023-02-19T13:17:10.619Z,101031.31
2023-02-19T13:22:48.685Z,101028.19
2023-02-19T13:28:02.506Z,101030.19
2023-02-19T13:33:06.646Z,101028.09
2023-02-19T13:43:13.828Z,101040.72
2023-02-19T13:48:38.889Z,101036.91
2023-02-19T13:53:51.759Z,101023.66
2023-02-19T13:58:56.717Z,101026.84
2023-02-19T14:04:10.353Z,101029.66
2023-02-19T14:09:43.915Z,101046.22
2023-02-19T14:14:56.589Z,101052.56
2023-02-19T14:20:01.327Z,101061.84
2023-02-19T14:24:58.145Z,101067.94
2023-02-19T14:29:54.769Z,101078.38
2023-02-19T14:34:51.209Z,101078.00
2023-02-19T14:39:48.397Z,101084.00
2023-02-19T14:44:52.250Z,101088.94
2023-02-19T14:49:54.015Z,101101.72
2023-02-19T14:54:59.220Z,101089.63
2023-02-19T15:00:00.615Z,101072.63
2023-02-19T15:04:57.382Z,101064.13
2023-02-19T15:09:57.504Z,101047.81
2023-02-19T15:14:59.105Z,101037.25
2023-02-19T15:19:58.311Z,101031.38
2023-02-19T15:24:55.524Z,101030.34
2023-02-19T15:29:53.889Z,101033.41
2023-02-19T15:35:02.831Z,101040.41
2023-02-19T15:40:02.844Z,101024.00
2023-02-19T15:45:11.511Z,101028.09
2023-02-19T15:50:13.802Z,101024.34
2023-02-19T15:55:21.627Z,101022.06
2023-02-19T16:00:24.655Z,101029.31
2023-02-19T16:05:26.699Z,101043.28
2023-02-19T16:10:25.265Z,101050.75
2023-02-19T16:15:21.743Z,101062.13
2023-02-19T16:20:26.434Z,101066.72
2023-02-19T16:25:29.653Z,101074.91
2023-02-19T16:30:33.687Z,101081.91
2023-02-19T16:35:39.664Z,101092.47
2023-02-19T16:40:48.074Z,101093.50
2023-02-19T16:45:45.800Z,101095.06
2023-02-19T16:50:42.364Z,101097.31
2023-02-19T16:55:38.718Z,101110.22
2023-02-19T17:00:35.409Z,101109.44
2023-02-19T17:05:32.548Z,101117.63
2023-02-19T17:10:28.965Z,101123.59
2023-02-19T17:15:25.322Z,101121.22
2023-02-19T17:20:29.427Z,101123.06
2023-02-19T17:25:25.815Z,101131.41
2023-02-19T17:30:28.190Z,101136.22
2023-02-19T17:35:25.179Z,101144.75
2023-02-19T17:40:32.876Z,101138.66
2023-02-19T17:45:30.203Z,101144.97
2023-02-19T17:50:29.988Z,101145.94
2023-02-19T17:55:26.682Z,101138.97
2023-02-19T18:00:28.962Z,101138.09
2023-02-19T18:05:25.373Z,101132.97
2023-02-19T18:10:23.471Z,101135.53
2023-02-19T18:15:23.026Z,101145.31
2023-02-19T18:20:24.054Z,101140.81
2023-02-19T18:25:21.794Z,101139.94
2023-02-19T18:30:20.595Z,101156.66
2023-02-19T18:35:19.456Z,101164.59
2023-02-19T18:40:15.832Z,101168.09
2023-02-19T18:45:12.507Z,101177.78
2023-02-19T18:50:09.842Z,101171.66
2023-02-19T18:55:06.713Z,101177.78
2023-02-19T19:00:06.297Z,101176.81
2023-02-19T19:05:02.823Z,101185.66
2023-02-19T19:09:59.315Z,101188.91
2023-02-19T19:14:55.854Z,101189.78
2023-02-19T19:19:52.200Z,101189.91
2023-02-19T19:24:48.850Z,101194.13
2023-02-19T19:29:47.249Z,101209.06
2023-02-19T19:34:43.963Z,101198.34
2023-02-19T19:39:42.774Z,101201.84
2023-02-19T19:44:39.313Z,101192.41
2023-02-19T19:49:35.748Z,101191.66
2023-02-19T19:54:32.145Z,101200.56
2023-02-19T19:59:28.480Z,101207.03
2023-02-19T20:04:25.596Z,101226.53
2023-02-19T20:09:25.501Z,101230.97
2023-02-19T20:14:23.765Z,101243.38
2023-02-19T20:19:20.938Z,101250.44
2023-02-19T20:24:20.459Z,101261.94
2023-02-19T20:29:17.260Z,101262.84
2023-02-19T20:34:13.653Z,101256.69
2023-02-19T20:39:10.140Z,101252.28
2023-02-19T20:44:06.492Z,101250.59
2023-02-19T20:49:02.837Z,101255.78
2023-02-19T20:53:59.249Z,101240.50
2023-02-19T20:58:55.583Z,101226.38
2023-02-19T21:03:51.920Z,101242.31
2023-02-19T21:08:48.284Z,101239.78
2023-02-19T21:13:44.642Z,101250.44
2023-02-19T21:18:41.417Z,101253.09
2023-02-19T21:23:37.836Z,101244.22
2023-02-19T21:28:34.180Z,101248.56
2023-02-19T21:33:30.643Z,101251.16
2023-02-19T21:38:27.058Z,101258.16
2023-02-19T21:43:23.427Z,101251.06
2023-02-19T21:48:19.804Z,101241.31
2023-02-19T21:53:16.419Z,101227.31
2023-02-19T21:58:12.770Z,101222.88
2023-02-19T22:03:15.989Z,101221.34
2023-02-19T22:08:15.488Z,101226.63
2023-02-19T22:13:11.884Z,101212.63
2023-02-19T22:18:08.246Z,101218.97
2023-02-19T22:23:05.230Z,101208.41
2023-02-19T22:28:03.747Z,101196.28
2023-02-19T22:33:00.218Z,101190.06
2023-02-19T22:37:56.658Z,101184.78
2023-02-19T22:42:53.115Z,101189.28
2023-02-19T22:47:49.523Z,101191.19
2023-02-19T22:52:45.905Z,101195.63
2023-02-19T22:57:42.288Z,101206.31
2023-02-19T23:02:38.630Z,101212.53
2023-02-19T23:07:35.005Z,101198.56
2023-02-19T23:12:31.368Z,101210.03
2023-02-19T23:17:27.822Z,101216.31
2023-02-19T23:22:24.419Z,101224.44
2023-02-19T23:27:21.181Z,101207.03
2023-02-19T23:32:20.903Z,101209.66
2023-02-19T23:37:17.678Z,101201.03
2023-02-19T23:42:19.208Z,101195.91
2023-02-19T23:47:15.759Z,101184.63
2023-02-19T23:52:12.088Z,101186.53
2023-02-19T23:57:08.504Z,101199.75
